Time;durP1;ratioP1;P1;durP2;ratioP2;P2;SDS_P1;SDS_P2;PMS_P1;PMS_P2;Temp;Humidity;BMP_temperature;BMP_pressure;BME280_temperature;BME280_humidity;BME280_pressure;Samples;Min_cycle;Max_cycle;Signal;HPM_P1;HPM_P2
2022/05/23 00:00:39;;;;;;;3.75;2.05;;;;;;;12.31;64.51;100229.53;18372125;32;20082;-63
2022/05/23 00:10:42;;;;;;;3.85;1.60;;;;;;;12.59;63.25;100229.19;18370793;32;20096;-63
2022/05/23 00:20:46;;;;;;;3.50;1.90;;;;;;;12.32;63.56;100231.28;18370585;32;20096;-63
2022/05/23 00:30:50;;;;;;;3.20;1.67;;;;;;;12.13;64.53;100224.53;18370176;32;20129;-63
2022/05/23 00:51:23;;;;;;;3.40;1.80;;;;;;;11.19;66.91;100233.22;18368701;32;20112;-64
2022/05/23 01:01:31;;;;;;;4.22;2.10;;;;;;;10.99;67.41;100233.34;18369129;32;20127;-63
2022/05/23 01:11:34;;;;;;;5.43;2.08;;;;;;;11.92;64.71;100231.69;18370328;32;20081;-63
2022/05/23 01:21:46;;;;;;;2.78;1.90;;;;;;;11.14;67.76;100228.88;18368702;32;20108;-64
2022/05/23 01:31:51;;;;;;;4.12;1.73;;;;;;;11.15;67.85;100238.50;18369734;32;20112;-63
2022/05/23 01:41:54;;;;;;;3.15;1.98;;;;;;;11.13;67.01;100225.44;18368482;32;20097;-63
2022/05/23 01:51:59;;;;;;;3.47;2.00;;;;;;;10.70;69.05;100229.19;18368264;32;20085;-64
2022/05/23 02:02:02;;;;;;;3.95;2.10;;;;;;;10.18;71.00;100227.63;18367542;32;20094;-64
2022/05/23 02:12:08;;;;;;;3.55;2.40;;;;;;;10.90;68.19;100210.75;18367292;32;20410;-64
2022/05/23 02:22:12;;;;;;;3.90;2.00;;;;;;;10.49;70.52;100217.09;18367039;32;20429;-64
2022/05/23 02:32:16;;;;;;;3.35;2.00;;;;;;;10.19;70.89;100209.34;18366374;32;20089;-64
2022/05/23 02:42:19;;;;;;;3.97;1.80;;;;;;;10.18;69.54;100210.22;18365638;32;20101;-64
2022/05/23 02:52:24;;;;;;;3.72;2.17;;;;;;;10.16;70.52;100214.59;18365203;32;20145;-64
2022/05/23 03:12:50;;;;;;;2.72;2.05;;;;;;;9.72;70.69;100192.97;18369414;32;20101;-64
2022/05/23 03:33:15;;;;;;;5.40;2.30;;;;;;;9.89;71.21;100197.31;18372049;32;20373;-64
2022/05/23 03:43:19;;;;;;;4.50;2.22;;;;;;;9.71;71.43;100204.28;18371927;32;20103;-64
2022/05/23 03:53:23;;;;;;;3.53;2.40;;;;;;;9.94;71.31;100217.28;18371332;32;20155;-64
2022/05/23 04:03:26;;;;;;;3.45;2.15;;;;;;;9.78;73.64;100216.44;18370916;32;20343;-64
2022/05/23 04:13:31;;;;;;;5.37;2.42;;;;;;;10.44;73.91;100214.50;18370735;32;20111;-64
2022/05/23 04:23:35;;;;;;;6.97;2.12;;;;;;;11.79;68.35;100210.91;18369529;32;20362;-64
2022/05/23 04:44:00;;;;;;;5.10;2.15;;;;;;;12.95;66.60;100215.62;18370872;32;20093;-64
2022/05/23 04:54:04;;;;;;;3.67;1.90;;;;;;;13.53;64.84;100212.09;18369697;32;20094;-64
2022/05/23 05:04:08;;;;;;;3.97;1.87;;;;;;;14.47;62.57;100205.94;18369123;32;20430;-64
2022/05/23 05:14:13;;;;;;;3.47;1.80;;;;;;;16.03;58.32;100208.28;18369268;32;20111;-65
2022/05/23 05:24:17;;;;;;;4.53;1.70;;;;;;;16.53;54.83;100222.69;18370244;32;20108;-64
2022/05/23 05:34:25;;;;;;;2.17;1.52;;;;;;;16.86;53.54;100222.56;18368159;32;20496;-65
2022/05/23 05:44:31;;;;;;;3.17;1.75;;;;;;;18.01;50.30;100214.34;18367568;32;20089;-65
2022/05/23 05:54:35;;;;;;;2.03;1.30;;;;;;;17.19;50.76;100214.53;18364790;32;20128;-65
2022/05/23 06:04:39;;;;;;;3.75;1.30;;;;;;;17.42;49.70;100212.88;18365979;32;20102;-65
2022/05/23 06:14:44;;;;;;;2.87;1.30;;;;;;;18.60;45.43;100207.84;18368140;32;20328;-65
2022/05/23 06:24:49;;;;;;;2.70;1.30;;;;;;;18.88;44.07;100207.63;18365770;32;20366;-65
2022/05/23 06:34:53;;;;;;;1.85;1.17;;;;;;;19.87;42.15;100213.25;18364162;32;20125;-65
2022/05/23 06:44:57;;;;;;;1.00;0.82;;;;;;;19.29;41.69;100211.31;18361226;32;20474;-65
2022/05/23 06:55:02;;;;;;;1.45;0.88;;;;;;;20.75;36.68;100199.56;18371995;32;20398;-65
2022/05/23 07:15:37;;;;;;;2.60;1.30;;;;;;;22.32;34.38;100173.03;18311165;32;20451;-64
2022/05/23 07:25:42;;;;;;;1.20;0.73;;;;;;;21.79;36.15;100164.38;18263325;32;20104;-62
2022/05/23 07:35:55;;;;;;;1.30;0.70;;;;;;;25.88;27.56;100143.03;18293360;32;20098;-64
2022/05/23 07:45:58;;;;;;;2.93;0.83;;;;;;;25.89;26.77;100138.53;18311272;32;20090;-64
2022/05/23 08:06:24;;;;;;;1.42;0.70;;;;;;;23.54;30.36;100135.06;18270797;32;20439;-64
2022/05/23 08:16:30;;;;;;;1.37;0.70;;;;;;;24.27;29.30;100138.59;18299895;32;20109;-64
2022/05/23 08:26:33;;;;;;;1.00;0.80;;;;;;;25.01;27.40;100106.22;18245241;32;20097;-64
2022/05/23 08:36:38;;;;;;;1.30;0.62;;;;;;;25.38;26.25;100104.66;18290009;32;20107;-63
2022/05/23 08:46:47;;;;;;;1.73;0.62;;;;;;;23.64;27.59;100104.25;18272982;32;20127;-63
2022/05/23 08:56:55;;;;;;;0.98;0.77;;;;;;;24.69;26.68;100100.31;18260025;32;20102;-64
2022/05/23 09:06:59;;;;;;;1.95;0.80;;;;;;;25.22;25.56;100070.97;18256247;32;20089;-65
2022/05/23 09:17:04;;;;;;;0.70;0.70;;;;;;;25.91;23.81;100067.09;18295461;32;20116;-63
2022/05/23 09:27:13;;;;;;;0.75;0.70;;;;;;;24.23;26.51;100063.25;18288696;32;20148;-64
2022/05/23 09:37:22;;;;;;;1.77;0.60;;;;;;;25.90;26.37;100047.53;18285039;32;20109;-64
2022/05/23 09:57:54;;;;;;;1.05;0.60;;;;;;;26.04;24.09;100048.34;18276498;32;20108;-65
2022/05/23 10:08:00;;;;;;;2.58;0.82;;;;;;;26.27;25.69;100043.13;18286277;32;20390;-64
2022/05/23 10:18:07;;;;;;;2.70;0.70;;;;;;;25.41;25.43;100040.31;18348158;32;20379;-63
2022/05/23 10:28:14;;;;;;;0.80;0.73;;;;;;;25.34;27.98;100045.22;18312768;32;20097;-64
2022/05/23 10:48:45;;;;;;;1.55;0.80;;;;;;;25.83;25.52;100014.19;18304482;32;20456;-64
2022/05/23 10:58:53;;;;;;;2.40;0.80;;;;;;;26.38;26.46;100002.22;18300395;32;20116;-64
2022/05/23 11:09:04;;;;;;;1.00;0.75;;;;;;;26.56;23.41;99992.78;18298817;32;20149;-64
2022/05/23 11:19:25;;;;;;;1.20;0.80;;;;;;;26.72;24.24;99973.72;18304512;32;20085;-64
2022/05/23 11:39:56;;;;;;;1.52;0.70;;;;;;;26.40;23.95;99961.00;18340573;32;20108;-64
2022/05/23 11:50:16;;;;;;;3.87;0.90;;;;;;;27.06;23.51;99962.22;18307278;32;20070;-64
2022/05/23 12:00:37;;;;;;;5.63;1.00;;;;;;;27.05;23.79;99955.16;18292208;32;20094;-65
2022/05/23 12:10:43;;;;;;;5.25;1.35;;;;;;;27.09;23.85;99950.41;18305806;32;20101;-65
2022/05/23 12:20:49;;;;;;;1.73;0.90;;;;;;;26.20;25.41;99945.59;18306157;32;20220;-64
2022/05/23 12:31:16;;;;;;;1.85;0.90;;;;;;;25.68;26.97;99964.50;18290665;32;20124;-64
2022/05/23 12:41:44;;;;;;;2.97;1.00;;;;;;;26.21;26.29;99939.28;18282812;32;20390;-63
2022/05/23 12:52:22;;;;;;;1.17;0.90;;;;;;;25.67;26.70;99914.69;18294655;32;210947;-64
2022/05/23 13:02:31;;;;;;;1.58;1.17;;;;;;;27.07;25.21;99906.84;18290283;32;20465;-64
2022/05/23 13:12:38;;;;;;;2.37;0.90;;;;;;;26.86;26.90;99913.72;18305604;32;20486;-63
2022/05/23 13:22:48;;;;;;;1.58;0.80;;;;;;;26.88;24.33;99889.56;18305524;32;20107;-63
2022/05/23 13:33:03;;;;;;;1.10;0.65;;;;;;;26.78;24.29;99884.03;18304994;32;20449;-64
2022/05/23 13:43:11;;;;;;;0.80;0.70;;;;;;;27.41;24.33;99867.44;18305044;32;20336;-65
2022/05/23 13:53:20;;;;;;;1.60;0.80;;;;;;;28.30;21.97;99854.81;18304223;32;20085;-64
2022/05/23 14:03:28;;;;;;;1.48;0.85;;;;;;;28.08;22.76;99851.25;18305126;32;20116;-64
2022/05/23 14:13:32;;;;;;;2.17;0.90;;;;;;;27.94;21.58;99854.25;18303793;32;20099;-64
2022/05/23 14:23:36;;;;;;;2.17;0.80;;;;;;;26.90;23.72;99839.41;18303340;32;20086;-63
2022/05/23 14:33:42;;;;;;;2.45;0.90;;;;;;;27.03;23.73;99835.72;18302491;32;20120;-63
2022/05/23 14:43:47;;;;;;;3.58;0.80;;;;;;;27.10;24.56;99819.06;18303695;32;20398;-64
2022/05/23 15:04:26;;;;;;;2.70;1.00;;;;;;;26.69;24.15;99809.81;18302569;32;20417;-64
2022/05/23 15:14:34;;;;;;;1.12;0.82;;;;;;;27.33;23.51;99805.59;18309436;32;20148;-64
2022/05/23 15:24:38;;;;;;;1.48;1.00;;;;;;;27.27;23.62;99790.00;18309250;32;20093;-64
2022/05/23 15:34:43;;;;;;;1.30;0.90;;;;;;;27.34;23.29;99775.13;18308703;32;20183;-64
2022/05/23 15:44:50;;;;;;;1.90;0.90;;;;;;;26.72;24.44;99772.09;18294641;32;20102;-63
2022/05/23 15:54:55;;;;;;;2.50;0.85;;;;;;;26.35;24.47;99757.16;18307902;32;20108;-64
2022/05/23 16:05:00;;;;;;;2.12;1.10;;;;;;;26.70;24.23;99753.47;18294476;32;20350;-64
2022/05/23 16:15:04;;;;;;;2.58;0.90;;;;;;;26.37;25.97;99754.34;18307105;32;20153;-64
2022/05/23 16:25:09;;;;;;;2.78;1.20;;;;;;;25.38;26.39;99739.53;18307063;32;20097;-64
2022/05/23 16:45:36;;;;;;;2.67;1.30;;;;;;;25.96;26.69;99728.06;18307044;32;20157;-64
2022/05/23 16:55:40;;;;;;;4.75;1.10;;;;;;;25.82;26.35;99731.78;18306113;32;20117;-64
2022/05/23 17:05:44;;;;;;;2.30;0.98;;;;;;;25.63;27.70;99721.66;18291523;32;20105;-64
2022/05/23 17:15:52;;;;;;;3.00;1.20;;;;;;;25.37;29.36;99736.97;18291631;32;20181;-64
2022/05/23 17:25:56;;;;;;;5.45;1.40;;;;;;;24.90;30.73;99735.91;18305833;32;20103;-64
2022/05/23 17:36:00;;;;;;;7.35;2.92;;;;;;;24.43;32.82;99738.31;18291925;32;20750;-64
2022/05/23 17:46:05;;;;;;;476.13;167.15;;;;;;;23.90;36.28;99738.44;18289413;32;20403;-64
2022/05/23 17:56:08;;;;;;;83.55;30.55;;;;;;;23.38;37.36;99746.31;18303029;32;20089;-64
2022/05/23 18:06:13;;;;;;;24.95;8.90;;;;;;;22.82;38.05;99740.09;18288763;32;20119;-63
2022/05/23 18:26:40;;;;;;;4.47;1.80;;;;;;;21.90;43.20;99766.97;18293070;32;20112;-66
2022/05/23 18:36:50;;;;;;;3.33;1.40;;;;;;;21.33;42.59;99778.22;18302844;32;20448;-66
2022/05/23 18:46:55;;;;;;;1.95;1.30;;;;;;;20.91;45.33;99792.03;18286044;32;20094;-66
2022/05/23 18:56:58;;;;;;;4.15;1.73;;;;;;;20.71;44.26;99816.09;18286892;32;20105;-66
2022/05/23 19:07:03;;;;;;;3.95;1.58;;;;;;;19.80;47.56;99823.34;18299886;32;20106;-66
2022/05/23 19:17:07;;;;;;;4.82;1.90;;;;;;;19.61;48.64;99830.47;18297319;32;20119;-66
2022/05/23 19:27:13;;;;;;;5.65;2.00;;;;;;;19.48;48.90;99832.84;18285091;32;20101;-66
2022/05/23 19:37:16;;;;;;;6.43;2.20;;;;;;;18.43;50.22;99857.88;18284630;32;20110;-66
2022/05/23 19:47:21;;;;;;;5.60;2.10;;;;;;;18.66;50.40;99880.63;18298350;32;20143;-65
2022/05/23 19:57:24;;;;;;;3.22;1.80;;;;;;;17.78;53.43;99879.91;18323126;32;20120;-65
2022/05/23 20:07:29;;;;;;;4.18;1.98;;;;;;;17.31;55.77;99863.25;18354973;32;20464;-65
2022/05/23 20:17:33;;;;;;;3.90;2.42;;;;;;;17.64;54.17;99864.63;18338169;32;20446;-66
2022/05/23 20:27:38;;;;;;;5.20;1.90;;;;;;;16.89;57.01;99854.25;18291715;32;20176;-65
2022/05/23 20:37:41;;;;;;;4.55;2.20;;;;;;;16.90;56.05;99855.13;18291165;32;20093;-66
2022/05/23 20:47:46;;;;;;;7.20;2.17;;;;;;;16.74;57.33;99868.88;18291840;32;20093;-66
2022/05/23 20:57:50;;;;;;;4.50;2.17;;;;;;;15.95;59.36;99875.09;18290673;32;20139;-66
2022/05/23 21:07:55;;;;;;;3.62;2.08;;;;;;;16.14;58.71;99876.22;18304275;32;20101;-67
2022/05/23 21:17:59;;;;;;;7.93;3.20;;;;;;;15.87;60.22;99860.41;18304795;32;20089;-66
2022/05/23 21:28:04;;;;;;;7.87;3.30;;;;;;;16.19;60.08;99874.31;18305220;32;20748;-66
2022/05/23 21:38:08;;;;;;;6.60;2.83;;;;;;;16.51;59.60;99880.22;18305012;32;20086;-66
2022/05/23 21:48:12;;;;;;;2.78;1.65;;;;;;;16.95;56.76;99900.63;18301165;32;20413;-66
2022/05/23 21:58:16;;;;;;;3.03;1.67;;;;;;;17.31;49.52;99897.56;18298941;32;20125;-66
2022/05/23 22:08:21;;;;;;;3.15;1.50;;;;;;;18.00;48.33;99890.44;18286152;32;20116;-66
2022/05/23 22:18:25;;;;;;;2.15;1.30;;;;;;;17.90;47.68;99918.16;18302997;32;20496;-66
2022/05/23 22:28:29;;;;;;;2.12;1.20;;;;;;;18.22;45.56;99923.91;18284408;32;20112;-66
2022/05/23 22:38:33;;;;;;;2.65;1.00;;;;;;;18.62;44.92;99931.94;18298747;32;20178;-66
2022/05/23 22:48:37;;;;;;;1.80;1.20;;;;;;;18.50;44.75;99919.28;18301208;32;20094;-66
2022/05/23 22:58:40;;;;;;;3.22;1.40;;;;;;;18.44;45.14;99915.06;18299095;32;20094;-66
2022/05/23 23:08:45;;;;;;;2.40;1.27;;;;;;;18.59;44.21;99921.50;18300333;32;20101;-66
2022/05/23 23:18:48;;;;;;;3.05;1.30;;;;;;;18.63;44.63;99911.63;18280157;32;20105;-66
2022/05/23 23:28:53;;;;;;;1.83;1.17;;;;;;;18.23;45.63;99908.94;18304298;32;20137;-66
2022/05/23 23:38:56;;;;;;;1.48;1.10;;;;;;;17.47;47.72;99900.44;18306808;32;20097;-66
2022/05/23 23:49:01;;;;;;;3.25;1.20;;;;;;;17.38;48.06;99903.44;18306312;32;20097;-66
2022/05/23 23:59:04;;;;;;;1.42;1.20;;;;;;;17.67;47.55;99895.31;18299577;32;20097;-66
